sensor_id;sensor_type;location;lat;lon;timestamp;P1;durP1;ratioP1;P2;durP2;ratioP2
27666;SDS011;15074;50.940;5.282;2023-02-05T00:00:13;47.47;;;27.80;;
27666;SDS011;15074;50.940;5.282;2023-02-05T00:02:40;53.00;;;27.42;;
27666;SDS011;15074;50.940;5.282;2023-02-05T00:05:06;54.85;;;28.02;;
27666;SDS011;15074;50.940;5.282;2023-02-05T00:07:31;53.40;;;28.75;;
27666;SDS011;15074;50.940;5.282;2023-02-05T00:09:57;59.65;;;26.73;;
27666;SDS011;15074;50.940;5.282;2023-02-05T00:12:23;56.30;;;27.05;;
27666;SDS011;15074;50.940;5.282;2023-02-05T00:14:48;52.45;;;27.27;;
27666;SDS011;15074;50.940;5.282;2023-02-05T00:17:14;52.85;;;27.58;;
27666;SDS011;15074;50.940;5.282;2023-02-05T00:19:40;49.88;;;27.35;;
27666;SDS011;15074;50.940;5.282;2023-02-05T00:22:05;46.72;;;26.90;;
27666;SDS011;15074;50.940;5.282;2023-02-05T00:24:31;61.08;;;29.88;;
27666;SDS011;15074;50.940;5.282;2023-02-05T00:26:57;51.42;;;28.58;;
27666;SDS011;15074;50.940;5.282;2023-02-05T00:29:22;49.80;;;28.92;;
27666;SDS011;15074;50.940;5.282;2023-02-05T00:31:49;56.10;;;30.10;;
27666;SDS011;15074;50.940;5.282;2023-02-05T00:34:15;60.22;;;29.60;;
27666;SDS011;15074;50.940;5.282;2023-02-05T00:36:41;65.38;;;32.30;;
27666;SDS011;15074;50.940;5.282;2023-02-05T00:39:07;64.32;;;31.45;;
27666;SDS011;15074;50.940;5.282;2023-02-05T00:44:02;59.47;;;30.20;;
27666;SDS011;15074;50.940;5.282;2023-02-05T00:46:28;59.50;;;30.88;;
27666;SDS011;15074;50.940;5.282;2023-02-05T00:48:53;79.85;;;34.83;;
27666;SDS011;15074;50.940;5.282;2023-02-05T00:51:19;64.35;;;32.70;;
27666;SDS011;15074;50.940;5.282;2023-02-05T00:53:44;63.97;;;31.83;;
27666;SDS011;15074;50.940;5.282;2023-02-05T00:56:10;66.20;;;32.80;;
27666;SDS011;15074;50.940;5.282;2023-02-05T00:58:36;57.28;;;32.25;;
27666;SDS011;15074;50.940;5.282;2023-02-05T01:01:02;64.70;;;31.67;;
27666;SDS011;15074;50.940;5.282;2023-02-05T01:03:27;61.42;;;31.33;;
27666;SDS011;15074;50.940;5.282;2023-02-05T01:05:53;74.57;;;33.90;;
27666;SDS011;15074;50.940;5.282;2023-02-05T01:08:19;63.00;;;32.10;;
27666;SDS011;15074;50.940;5.282;2023-02-05T01:10:45;71.47;;;34.35;;
27666;SDS011;15074;50.940;5.282;2023-02-05T01:13:13;71.40;;;33.85;;
27666;SDS011;15074;50.940;5.282;2023-02-05T01:15:39;72.70;;;33.10;;
27666;SDS011;15074;50.940;5.282;2023-02-05T01:18:05;63.42;;;31.48;;
27666;SDS011;15074;50.940;5.282;2023-02-05T01:20:31;55.30;;;30.45;;
27666;SDS011;15074;50.940;5.282;2023-02-05T01:22:56;63.47;;;31.85;;
27666;SDS011;15074;50.940;5.282;2023-02-05T01:25:22;67.90;;;31.65;;
27666;SDS011;15074;50.940;5.282;2023-02-05T01:27:48;57.17;;;30.15;;
27666;SDS011;15074;50.940;5.282;2023-02-05T01:30:14;61.33;;;31.08;;
27666;SDS011;15074;50.940;5.282;2023-02-05T01:32:39;60.08;;;31.88;;
27666;SDS011;15074;50.940;5.282;2023-02-05T01:35:06;63.85;;;31.77;;
27666;SDS011;15074;50.940;5.282;2023-02-05T01:37:32;62.72;;;31.75;;
27666;SDS011;15074;50.940;5.282;2023-02-05T01:39:58;52.28;;;30.55;;
27666;SDS011;15074;50.940;5.282;2023-02-05T01:42:25;65.60;;;32.85;;
27666;SDS011;15074;50.940;5.282;2023-02-05T01:48:01;64.28;;;31.67;;
27666;SDS011;15074;50.940;5.282;2023-02-05T01:52:56;55.30;;;30.70;;
27666;SDS011;15074;50.940;5.282;2023-02-05T01:57:50;69.25;;;31.42;;
27666;SDS011;15074;50.940;5.282;2023-02-05T02:00:16;74.60;;;34.30;;
27666;SDS011;15074;50.940;5.282;2023-02-05T02:02:42;66.05;;;32.90;;
27666;SDS011;15074;50.940;5.282;2023-02-05T02:05:09;78.55;;;33.58;;
27666;SDS011;15074;50.940;5.282;2023-02-05T02:07:39;69.53;;;34.03;;
27666;SDS011;15074;50.940;5.282;2023-02-05T02:10:05;72.25;;;33.13;;
27666;SDS011;15074;50.940;5.282;2023-02-05T02:12:32;73.03;;;33.65;;
27666;SDS011;15074;50.940;5.282;2023-02-05T02:15:02;68.47;;;31.95;;
27666;SDS011;15074;50.940;5.282;2023-02-05T02:17:34;68.68;;;31.90;;
27666;SDS011;15074;50.940;5.282;2023-02-05T02:30:52;68.72;;;32.80;;
27666;SDS011;15074;50.940;5.282;2023-02-05T02:41:24;68.13;;;33.10;;
27666;SDS011;15074;50.940;5.282;2023-02-05T02:44:27;71.75;;;32.63;;
27666;SDS011;15074;50.940;5.282;2023-02-05T02:51:56;74.72;;;33.05;;
27666;SDS011;15074;50.940;5.282;2023-02-05T02:54:24;67.25;;;32.10;;
27666;SDS011;15074;50.940;5.282;2023-02-05T02:56:52;79.93;;;33.63;;
27666;SDS011;15074;50.940;5.282;2023-02-05T02:59:21;61.72;;;31.40;;
27666;SDS011;15074;50.940;5.282;2023-02-05T03:01:52;65.53;;;32.08;;
27666;SDS011;15074;50.940;5.282;2023-02-05T03:04:23;69.72;;;33.80;;
27666;SDS011;15074;50.940;5.282;2023-02-05T03:06:55;79.00;;;34.75;;
27666;SDS011;15074;50.940;5.282;2023-02-05T03:09:51;77.30;;;34.20;;
27666;SDS011;15074;50.940;5.282;2023-02-05T03:12:31;73.30;;;35.67;;
27666;SDS011;15074;50.940;5.282;2023-02-05T03:14:58;69.03;;;33.70;;
27666;SDS011;15074;50.940;5.282;2023-02-05T03:17:24;76.15;;;35.97;;
27666;SDS011;15074;50.940;5.282;2023-02-05T03:20:33;80.28;;;34.88;;
27666;SDS011;15074;50.940;5.282;2023-02-05T03:22:42;73.15;;;34.28;;
27666;SDS011;15074;50.940;5.282;2023-02-05T03:25:08;69.88;;;33.08;;
27666;SDS011;15074;50.940;5.282;2023-02-05T03:27:34;75.13;;;34.88;;
27666;SDS011;15074;50.940;5.282;2023-02-05T03:30:01;77.20;;;33.65;;
27666;SDS011;15074;50.940;5.282;2023-02-05T03:48:27;74.47;;;34.15;;
27666;SDS011;15074;50.940;5.282;2023-02-05T03:51:24;63.38;;;33.08;;
27666;SDS011;15074;50.940;5.282;2023-02-05T03:59:12;56.42;;;31.15;;
27666;SDS011;15074;50.940;5.282;2023-02-05T04:01:40;65.68;;;30.73;;
27666;SDS011;15074;50.940;5.282;2023-02-05T04:06:34;67.40;;;30.50;;
27666;SDS011;15074;50.940;5.282;2023-02-05T04:08:59;58.63;;;31.10;;
27666;SDS011;15074;50.940;5.282;2023-02-05T04:11:25;61.67;;;29.58;;
27666;SDS011;15074;50.940;5.282;2023-02-05T04:13:51;57.65;;;29.05;;
27666;SDS011;15074;50.940;5.282;2023-02-05T04:16:16;53.22;;;28.45;;
27666;SDS011;15074;50.940;5.282;2023-02-05T04:18:42;53.90;;;27.92;;
27666;SDS011;15074;50.940;5.282;2023-02-05T04:21:07;50.33;;;27.48;;
27666;SDS011;15074;50.940;5.282;2023-02-05T04:23:33;53.00;;;26.73;;
27666;SDS011;15074;50.940;5.282;2023-02-05T04:25:59;50.22;;;26.45;;
27666;SDS011;15074;50.940;5.282;2023-02-05T04:28:24;45.47;;;26.65;;
27666;SDS011;15074;50.940;5.282;2023-02-05T04:30:50;48.47;;;25.77;;
27666;SDS011;15074;50.940;5.282;2023-02-05T04:33:16;40.08;;;24.85;;
27666;SDS011;15074;50.940;5.282;2023-02-05T04:35:41;44.65;;;24.25;;
27666;SDS011;15074;50.940;5.282;2023-02-05T04:38:07;43.13;;;25.63;;
27666;SDS011;15074;50.940;5.282;2023-02-05T04:40:33;41.47;;;24.55;;
27666;SDS011;15074;50.940;5.282;2023-02-05T04:42:58;45.33;;;24.38;;
27666;SDS011;15074;50.940;5.282;2023-02-05T04:45:24;37.17;;;22.88;;
27666;SDS011;15074;50.940;5.282;2023-02-05T04:47:54;41.13;;;23.13;;
27666;SDS011;15074;50.940;5.282;2023-02-05T04:50:21;36.38;;;23.00;;
27666;SDS011;15074;50.940;5.282;2023-02-05T04:52:47;38.67;;;23.27;;
27666;SDS011;15074;50.940;5.282;2023-02-05T04:55:12;37.75;;;22.25;;
27666;SDS011;15074;50.940;5.282;2023-02-05T04:57:38;35.65;;;21.42;;
27666;SDS011;15074;50.940;5.282;2023-02-05T05:00:04;33.88;;;21.27;;
27666;SDS011;15074;50.940;5.282;2023-02-05T05:02:30;42.10;;;21.65;;
27666;SDS011;15074;50.940;5.282;2023-02-05T05:04:56;29.38;;;19.88;;
27666;SDS011;15074;50.940;5.282;2023-02-05T05:07:22;32.40;;;20.02;;
27666;SDS011;15074;50.940;5.282;2023-02-05T05:09:47;38.65;;;21.08;;
27666;SDS011;15074;50.940;5.282;2023-02-05T05:12:13;36.72;;;20.70;;
27666;SDS011;15074;50.940;5.282;2023-02-05T05:14:39;35.60;;;20.90;;
27666;SDS011;15074;50.940;5.282;2023-02-05T05:17:04;32.33;;;19.08;;
27666;SDS011;15074;50.940;5.282;2023-02-05T05:19:30;31.08;;;21.17;;
27666;SDS011;15074;50.940;5.282;2023-02-05T05:21:55;31.45;;;19.65;;
27666;SDS011;15074;50.940;5.282;2023-02-05T05:24:21;29.15;;;18.45;;
27666;SDS011;15074;50.940;5.282;2023-02-05T05:26:47;32.67;;;17.80;;
27666;SDS011;15074;50.940;5.282;2023-02-05T05:29:13;26.73;;;17.92;;
27666;SDS011;15074;50.940;5.282;2023-02-05T05:31:39;23.48;;;15.80;;
27666;SDS011;15074;50.940;5.282;2023-02-05T05:34:05;30.00;;;17.70;;
27666;SDS011;15074;50.940;5.282;2023-02-05T05:36:31;25.38;;;17.42;;
27666;SDS011;15074;50.940;5.282;2023-02-05T05:38:57;25.30;;;17.40;;
27666;SDS011;15074;50.940;5.282;2023-02-05T05:41:42;24.20;;;16.92;;
27666;SDS011;15074;50.940;5.282;2023-02-05T05:44:26;21.50;;;16.88;;
27666;SDS011;15074;50.940;5.282;2023-02-05T05:46:52;26.90;;;16.15;;
27666;SDS011;15074;50.940;5.282;2023-02-05T05:49:18;25.55;;;17.02;;
27666;SDS011;15074;50.940;5.282;2023-02-05T05:51:43;18.45;;;16.48;;
27666;SDS011;15074;50.940;5.282;2023-02-05T05:54:09;22.90;;;16.02;;
27666;SDS011;15074;50.940;5.282;2023-02-05T05:56:34;21.88;;;15.18;;
27666;SDS011;15074;50.940;5.282;2023-02-05T05:59:00;22.92;;;16.70;;
27666;SDS011;15074;50.940;5.282;2023-02-05T06:01:26;17.90;;;16.02;;
27666;SDS011;15074;50.940;5.282;2023-02-05T06:03:52;19.73;;;17.58;;
27666;SDS011;15074;50.940;5.282;2023-02-05T06:06:17;22.02;;;15.95;;
27666;SDS011;15074;50.940;5.282;2023-02-05T06:08:43;21.00;;;14.77;;
27666;SDS011;15074;50.940;5.282;2023-02-05T06:11:09;16.55;;;14.52;;
27666;SDS011;15074;50.940;5.282;2023-02-05T06:13:35;23.77;;;15.93;;
27666;SDS011;15074;50.940;5.282;2023-02-05T06:16:01;17.48;;;15.02;;
27666;SDS011;15074;50.940;5.282;2023-02-05T06:18:27;16.90;;;14.65;;
27666;SDS011;15074;50.940;5.282;2023-02-05T06:20:53;23.42;;;15.75;;
27666;SDS011;15074;50.940;5.282;2023-02-05T06:23:18;17.83;;;14.88;;
27666;SDS011;15074;50.940;5.282;2023-02-05T06:25:44;21.83;;;15.63;;
27666;SDS011;15074;50.940;5.282;2023-02-05T06:28:10;23.35;;;16.38;;
27666;SDS011;15074;50.940;5.282;2023-02-05T06:30:35;19.38;;;15.32;;
27666;SDS011;15074;50.940;5.282;2023-02-05T06:33:01;27.48;;;14.95;;
27666;SDS011;15074;50.940;5.282;2023-02-05T06:35:27;19.60;;;15.07;;
27666;SDS011;15074;50.940;5.282;2023-02-05T06:37:52;23.13;;;16.10;;
27666;SDS011;15074;50.940;5.282;2023-02-05T06:40:18;18.65;;;15.50;;
27666;SDS011;15074;50.940;5.282;2023-02-05T06:42:46;26.50;;;15.77;;
27666;SDS011;15074;50.940;5.282;2023-02-05T06:45:12;24.88;;;16.27;;
27666;SDS011;15074;50.940;5.282;2023-02-05T06:47:38;24.38;;;16.42;;
27666;SDS011;15074;50.940;5.282;2023-02-05T06:50:04;22.67;;;16.23;;
27666;SDS011;15074;50.940;5.282;2023-02-05T06:52:30;18.20;;;15.27;;
27666;SDS011;15074;50.940;5.282;2023-02-05T06:54:56;25.63;;;16.92;;
27666;SDS011;15074;50.940;5.282;2023-02-05T07:16:04;21.65;;;16.73;;
27666;SDS011;15074;50.940;5.282;2023-02-05T07:18:31;29.27;;;18.23;;
27666;SDS011;15074;50.940;5.282;2023-02-05T07:20:57;23.58;;;17.02;;
27666;SDS011;15074;50.940;5.282;2023-02-05T07:23:24;26.40;;;18.63;;
27666;SDS011;15074;50.940;5.282;2023-02-05T07:25:49;27.52;;;18.75;;
27666;SDS011;15074;50.940;5.282;2023-02-05T07:28:15;21.20;;;17.30;;
27666;SDS011;15074;50.940;5.282;2023-02-05T07:30:41;19.13;;;15.38;;
27666;SDS011;15074;50.940;5.282;2023-02-05T07:33:07;20.35;;;17.08;;
27666;SDS011;15074;50.940;5.282;2023-02-05T07:35:35;24.00;;;17.83;;
27666;SDS011;15074;50.940;5.282;2023-02-05T07:38:01;21.48;;;16.83;;
27666;SDS011;15074;50.940;5.282;2023-02-05T07:40:27;21.17;;;14.55;;
27666;SDS011;15074;50.940;5.282;2023-02-05T07:42:53;12.40;;;8.65;;
27666;SDS011;15074;50.940;5.282;2023-02-05T07:45:19;10.02;;;8.00;;
27666;SDS011;15074;50.940;5.282;2023-02-05T07:47:45;10.57;;;6.38;;
27666;SDS011;15074;50.940;5.282;2023-02-05T07:50:13;9.55;;;5.53;;
27666;SDS011;15074;50.940;5.282;2023-02-05T07:52:39;6.53;;;3.00;;
27666;SDS011;15074;50.940;5.282;2023-02-05T07:55:05;6.65;;;2.60;;
27666;SDS011;15074;50.940;5.282;2023-02-05T07:57:31;5.35;;;2.13;;
27666;SDS011;15074;50.940;5.282;2023-02-05T07:59:56;3.90;;;2.28;;
27666;SDS011;15074;50.940;5.282;2023-02-05T08:02:22;4.43;;;2.15;;
27666;SDS011;15074;50.940;5.282;2023-02-05T08:04:48;4.78;;;1.83;;
27666;SDS011;15074;50.940;5.282;2023-02-05T08:07:13;4.32;;;2.03;;
27666;SDS011;15074;50.940;5.282;2023-02-05T08:09:39;4.97;;;1.55;;
27666;SDS011;15074;50.940;5.282;2023-02-05T08:12:05;7.68;;;1.30;;
27666;SDS011;15074;50.940;5.282;2023-02-05T08:14:31;3.78;;;1.10;;
27666;SDS011;15074;50.940;5.282;2023-02-05T08:16:57;4.07;;;1.42;;
27666;SDS011;15074;50.940;5.282;2023-02-05T08:19:23;6.57;;;1.20;;
27666;SDS011;15074;50.940;5.282;2023-02-05T08:21:50;3.28;;;1.00;;
27666;SDS011;15074;50.940;5.282;2023-02-05T08:24:16;6.03;;;1.00;;
27666;SDS011;15074;50.940;5.282;2023-02-05T08:26:42;5.15;;;1.23;;
27666;SDS011;15074;50.940;5.282;2023-02-05T08:29:08;6.13;;;0.85;;
27666;SDS011;15074;50.940;5.282;2023-02-05T08:31:35;3.35;;;1.13;;
27666;SDS011;15074;50.940;5.282;2023-02-05T08:34:01;4.05;;;0.80;;
27666;SDS011;15074;50.940;5.282;2023-02-05T08:36:27;6.82;;;1.10;;
27666;SDS011;15074;50.940;5.282;2023-02-05T08:38:54;3.95;;;0.85;;
27666;SDS011;15074;50.940;5.282;2023-02-05T08:41:19;6.10;;;1.23;;
27666;SDS011;15074;50.940;5.282;2023-02-05T08:43:47;7.13;;;1.73;;
27666;SDS011;15074;50.940;5.282;2023-02-05T08:46:15;9.77;;;0.93;;
27666;SDS011;15074;50.940;5.282;2023-02-05T08:48:44;4.20;;;1.05;;
27666;SDS011;15074;50.940;5.282;2023-02-05T08:51:10;3.97;;;1.25;;
27666;SDS011;15074;50.940;5.282;2023-02-05T08:53:37;3.60;;;0.90;;
27666;SDS011;15074;50.940;5.282;2023-02-05T08:56:04;4.30;;;0.98;;
27666;SDS011;15074;50.940;5.282;2023-02-05T08:58:30;3.42;;;0.90;;
27666;SDS011;15074;50.940;5.282;2023-02-05T09:01:03;8.30;;;1.50;;
27666;SDS011;15074;50.940;5.282;2023-02-05T09:03:32;4.28;;;0.80;;
27666;SDS011;15074;50.940;5.282;2023-02-05T09:05:58;5.43;;;1.17;;
27666;SDS011;15074;50.940;5.282;2023-02-05T09:08:24;5.43;;;1.00;;
27666;SDS011;15074;50.940;5.282;2023-02-05T09:10:51;3.73;;;1.03;;
27666;SDS011;15074;50.940;5.282;2023-02-05T09:13:17;4.05;;;0.77;;
27666;SDS011;15074;50.940;5.282;2023-02-05T09:15:44;4.22;;;1.13;;
27666;SDS011;15074;50.940;5.282;2023-02-05T09:18:10;9.77;;;0.90;;
27666;SDS011;15074;50.940;5.282;2023-02-05T09:20:40;6.53;;;1.27;;
27666;SDS011;15074;50.940;5.282;2023-02-05T09:23:08;6.20;;;1.25;;
27666;SDS011;15074;50.940;5.282;2023-02-05T09:28:01;4.53;;;1.50;;
27666;SDS011;15074;50.940;5.282;2023-02-05T09:30:26;3.55;;;1.15;;
27666;SDS011;15074;50.940;5.282;2023-02-05T09:32:52;5.18;;;1.10;;
27666;SDS011;15074;50.940;5.282;2023-02-05T09:35:18;6.43;;;0.93;;
27666;SDS011;15074;50.940;5.282;2023-02-05T09:37:43;6.10;;;1.15;;
27666;SDS011;15074;50.940;5.282;2023-02-05T09:40:20;3.08;;;1.48;;
27666;SDS011;15074;50.940;5.282;2023-02-05T09:42:52;11.38;;;2.03;;
27666;SDS011;15074;50.940;5.282;2023-02-05T09:51:07;7.53;;;1.60;;
27666;SDS011;15074;50.940;5.282;2023-02-05T09:53:36;7.30;;;1.67;;
27666;SDS011;15074;50.940;5.282;2023-02-05T09:56:08;3.10;;;0.98;;
27666;SDS011;15074;50.940;5.282;2023-02-05T09:58:39;3.70;;;1.55;;
27666;SDS011;15074;50.940;5.282;2023-02-05T10:01:23;4.68;;;1.35;;
27666;SDS011;15074;50.940;5.282;2023-02-05T10:04:08;7.97;;;1.35;;
27666;SDS011;15074;50.940;5.282;2023-02-05T10:06:40;9.80;;;1.50;;
27666;SDS011;15074;50.940;5.282;2023-02-05T10:09:28;6.93;;;1.20;;
27666;SDS011;15074;50.940;5.282;2023-02-05T10:28:17;14.45;;;2.25;;
27666;SDS011;15074;50.940;5.282;2023-02-05T10:30:55;10.38;;;2.13;;
27666;SDS011;15074;50.940;5.282;2023-02-05T10:33:38;7.38;;;2.55;;
27666;SDS011;15074;50.940;5.282;2023-02-05T10:36:12;10.88;;;2.33;;
27666;SDS011;15074;50.940;5.282;2023-02-05T10:38:43;9.77;;;2.22;;
27666;SDS011;15074;50.940;5.282;2023-02-05T10:41:15;8.13;;;2.03;;
27666;SDS011;15074;50.940;5.282;2023-02-05T10:44:02;13.77;;;2.28;;
27666;SDS011;15074;50.940;5.282;2023-02-05T10:46:31;11.57;;;2.70;;
27666;SDS011;15074;50.940;5.282;2023-02-05T10:49:07;8.35;;;2.50;;
27666;SDS011;15074;50.940;5.282;2023-02-05T10:51:40;22.42;;;3.35;;
27666;SDS011;15074;50.940;5.282;2023-02-05T10:54:14;10.38;;;2.97;;
27666;SDS011;15074;50.940;5.282;2023-02-05T10:56:40;13.45;;;2.60;;
27666;SDS011;15074;50.940;5.282;2023-02-05T10:59:08;12.43;;;4.75;;
27666;SDS011;15074;50.940;5.282;2023-02-05T11:02:07;25.42;;;4.65;;
27666;SDS011;15074;50.940;5.282;2023-02-05T11:04:35;13.43;;;3.17;;
27666;SDS011;15074;50.940;5.282;2023-02-05T11:07:13;34.38;;;7.07;;
27666;SDS011;15074;50.940;5.282;2023-02-05T11:09:46;10.25;;;2.60;;
27666;SDS011;15074;50.940;5.282;2023-02-05T11:12:17;9.50;;;3.47;;
27666;SDS011;15074;50.940;5.282;2023-02-05T11:14:55;12.52;;;2.83;;
27666;SDS011;15074;50.940;5.282;2023-02-05T11:17:24;14.18;;;2.55;;
27666;SDS011;15074;50.940;5.282;2023-02-05T11:20:00;14.63;;;2.53;;
27666;SDS011;15074;50.940;5.282;2023-02-05T11:22:31;14.07;;;2.20;;
27666;SDS011;15074;50.940;5.282;2023-02-05T11:25:06;8.77;;;2.58;;
27666;SDS011;15074;50.940;5.282;2023-02-05T11:27:39;10.38;;;2.80;;
27666;SDS011;15074;50.940;5.282;2023-02-05T11:30:18;10.73;;;2.30;;
27666;SDS011;15074;50.940;5.282;2023-02-05T11:32:50;14.48;;;2.38;;
27666;SDS011;15074;50.940;5.282;2023-02-05T11:35:23;16.33;;;3.10;;
27666;SDS011;15074;50.940;5.282;2023-02-05T11:38:16;17.90;;;2.72;;
27666;SDS011;15074;50.940;5.282;2023-02-05T11:41:09;10.10;;;1.83;;
27666;SDS011;15074;50.940;5.282;2023-02-05T11:43:43;12.32;;;2.47;;
27666;SDS011;15074;50.940;5.282;2023-02-05T11:46:14;7.20;;;2.00;;
27666;SDS011;15074;50.940;5.282;2023-02-05T11:48:43;10.10;;;2.72;;
27666;SDS011;15074;50.940;5.282;2023-02-05T11:54:00;10.57;;;3.05;;
27666;SDS011;15074;50.940;5.282;2023-02-05T11:56:28;16.15;;;2.67;;
27666;SDS011;15074;50.940;5.282;2023-02-05T11:59:01;14.50;;;2.50;;
27666;SDS011;15074;50.940;5.282;2023-02-05T12:01:30;13.52;;;3.00;;
27666;SDS011;15074;50.940;5.282;2023-02-05T12:03:59;9.13;;;2.25;;
27666;SDS011;15074;50.940;5.282;2023-02-05T12:06:39;12.88;;;2.97;;
27666;SDS011;15074;50.940;5.282;2023-02-05T12:09:22;9.18;;;2.88;;
27666;SDS011;15074;50.940;5.282;2023-02-05T12:11:58;15.32;;;3.33;;
27666;SDS011;15074;50.940;5.282;2023-02-05T12:17:34;12.77;;;3.22;;
27666;SDS011;15074;50.940;5.282;2023-02-05T12:20:18;12.13;;;2.35;;
27666;SDS011;15074;50.940;5.282;2023-02-05T12:45:28;27.95;;;4.78;;
27666;SDS011;15074;50.940;5.282;2023-02-05T12:48:27;9.20;;;2.50;;
27666;SDS011;15074;50.940;5.282;2023-02-05T12:51:35;13.10;;;2.53;;
27666;SDS011;15074;50.940;5.282;2023-02-05T12:54:29;13.65;;;2.58;;
27666;SDS011;15074;50.940;5.282;2023-02-05T12:57:11;17.15;;;2.92;;
27666;SDS011;15074;50.940;5.282;2023-02-05T12:59:41;18.80;;;3.42;;
27666;SDS011;15074;50.940;5.282;2023-02-05T13:05:03;16.52;;;2.17;;
27666;SDS011;15074;50.940;5.282;2023-02-05T13:10:27;15.45;;;2.60;;
27666;SDS011;15074;50.940;5.282;2023-02-05T13:13:13;13.52;;;2.28;;
27666;SDS011;15074;50.940;5.282;2023-02-05T13:15:44;19.10;;;2.85;;
27666;SDS011;15074;50.940;5.282;2023-02-05T13:20:54;11.18;;;1.98;;
27666;SDS011;15074;50.940;5.282;2023-02-05T13:23:41;11.95;;;2.90;;
27666;SDS011;15074;50.940;5.282;2023-02-05T13:26:29;12.80;;;2.42;;
27666;SDS011;15074;50.940;5.282;2023-02-05T13:29:18;15.35;;;2.40;;
27666;SDS011;15074;50.940;5.282;2023-02-05T13:31:48;15.57;;;3.03;;
27666;SDS011;15074;50.940;5.282;2023-02-05T13:34:16;9.27;;;1.88;;
27666;SDS011;15074;50.940;5.282;2023-02-05T13:42:46;8.85;;;1.70;;
27666;SDS011;15074;50.940;5.282;2023-02-05T13:45:51;12.48;;;2.63;;
27666;SDS011;15074;50.940;5.282;2023-02-05T13:56:52;16.23;;;2.33;;
27666;SDS011;15074;50.940;5.282;2023-02-05T14:01:57;15.57;;;1.90;;
27666;SDS011;15074;50.940;5.282;2023-02-05T14:07:46;9.10;;;1.70;;
27666;SDS011;15074;50.940;5.282;2023-02-05T14:09:52;10.95;;;2.28;;
27666;SDS011;15074;50.940;5.282;2023-02-05T14:12:36;6.90;;;2.08;;
27666;SDS011;15074;50.940;5.282;2023-02-05T14:22:53;11.63;;;1.63;;
27666;SDS011;15074;50.940;5.282;2023-02-05T14:30:54;9.40;;;2.22;;
27666;SDS011;15074;50.940;5.282;2023-02-05T14:35:53;13.73;;;2.10;;
27666;SDS011;15074;50.940;5.282;2023-02-05T14:41:15;16.83;;;2.80;;
27666;SDS011;15074;50.940;5.282;2023-02-05T14:43:44;8.38;;;2.15;;
27666;SDS011;15074;50.940;5.282;2023-02-05T14:48:56;8.48;;;1.70;;
27666;SDS011;15074;50.940;5.282;2023-02-05T14:54:29;8.25;;;1.80;;
27666;SDS011;15074;50.940;5.282;2023-02-05T14:56:49;8.80;;;2.20;;
27666;SDS011;15074;50.940;5.282;2023-02-05T15:01:54;14.38;;;2.28;;
27666;SDS011;15074;50.940;5.282;2023-02-05T15:06:58;18.77;;;2.33;;
27666;SDS011;15074;50.940;5.282;2023-02-05T15:14:58;8.77;;;1.92;;
27666;SDS011;15074;50.940;5.282;2023-02-05T15:20:04;11.32;;;2.55;;
27666;SDS011;15074;50.940;5.282;2023-02-05T15:22:50;6.85;;;2.00;;
27666;SDS011;15074;50.940;5.282;2023-02-05T15:27:55;9.98;;;2.03;;
27666;SDS011;15074;50.940;5.282;2023-02-05T15:30:32;9.80;;;2.00;;
27666;SDS011;15074;50.940;5.282;2023-02-05T15:33:16;9.65;;;1.95;;
27666;SDS011;15074;50.940;5.282;2023-02-05T15:35:49;6.68;;;2.30;;
27666;SDS011;15074;50.940;5.282;2023-02-05T15:38:31;15.43;;;2.92;;
27666;SDS011;15074;50.940;5.282;2023-02-05T15:41:03;11.15;;;1.92;;
27666;SDS011;15074;50.940;5.282;2023-02-05T15:43:31;7.97;;;1.95;;
27666;SDS011;15074;50.940;5.282;2023-02-05T15:46:01;11.93;;;2.40;;
27666;SDS011;15074;50.940;5.282;2023-02-05T15:48:30;10.57;;;2.40;;
27666;SDS011;15074;50.940;5.282;2023-02-05T15:51:04;11.48;;;2.83;;
27666;SDS011;15074;50.940;5.282;2023-02-05T15:53:44;8.43;;;2.20;;
27666;SDS011;15074;50.940;5.282;2023-02-05T15:58:51;9.80;;;2.63;;
27666;SDS011;15074;50.940;5.282;2023-02-05T16:01:24;8.90;;;2.10;;
27666;SDS011;15074;50.940;5.282;2023-02-05T16:06:24;12.73;;;2.33;;
27666;SDS011;15074;50.940;5.282;2023-02-05T16:08:52;7.38;;;1.98;;
27666;SDS011;15074;50.940;5.282;2023-02-05T16:11:29;10.18;;;3.10;;
27666;SDS011;15074;50.940;5.282;2023-02-05T16:16:30;21.92;;;2.33;;
27666;SDS011;15074;50.940;5.282;2023-02-05T16:18:57;11.73;;;2.47;;
27666;SDS011;15074;50.940;5.282;2023-02-05T16:21:30;14.70;;;3.28;;
27666;SDS011;15074;50.940;5.282;2023-02-05T16:24:00;11.63;;;3.45;;
27666;SDS011;15074;50.940;5.282;2023-02-05T16:26:34;14.75;;;2.13;;
27666;SDS011;15074;50.940;5.282;2023-02-05T16:29:05;14.35;;;2.78;;
27666;SDS011;15074;50.940;5.282;2023-02-05T16:31:38;16.00;;;2.97;;
27666;SDS011;15074;50.940;5.282;2023-02-05T16:34:11;10.05;;;2.55;;
27666;SDS011;15074;50.940;5.282;2023-02-05T16:36:42;17.65;;;2.92;;
27666;SDS011;15074;50.940;5.282;2023-02-05T16:39:22;15.90;;;3.47;;
27666;SDS011;15074;50.940;5.282;2023-02-05T16:42:00;18.45;;;3.00;;
27666;SDS011;15074;50.940;5.282;2023-02-05T16:44:33;8.43;;;2.28;;
27666;SDS011;15074;50.940;5.282;2023-02-05T16:47:11;15.65;;;3.28;;
27666;SDS011;15074;50.940;5.282;2023-02-05T16:49:43;18.95;;;3.40;;
27666;SDS011;15074;50.940;5.282;2023-02-05T16:52:27;12.98;;;3.20;;
27666;SDS011;15074;50.940;5.282;2023-02-05T16:57:30;20.42;;;2.92;;
27666;SDS011;15074;50.940;5.282;2023-02-05T16:59:59;20.52;;;3.80;;
27666;SDS011;15074;50.940;5.282;2023-02-05T17:02:37;9.82;;;2.55;;
27666;SDS011;15074;50.940;5.282;2023-02-05T17:05:06;11.18;;;3.67;;
27666;SDS011;15074;50.940;5.282;2023-02-05T17:07:51;12.32;;;3.25;;
27666;SDS011;15074;50.940;5.282;2023-02-05T17:10:24;17.88;;;3.78;;
27666;SDS011;15074;50.940;5.282;2023-02-05T17:17:50;16.83;;;3.75;;
27666;SDS011;15074;50.940;5.282;2023-02-05T17:20:18;19.48;;;3.25;;
27666;SDS011;15074;50.940;5.282;2023-02-05T17:28:04;29.73;;;4.70;;
27666;SDS011;15074;50.940;5.282;2023-02-05T17:30:31;21.80;;;4.07;;
27666;SDS011;15074;50.940;5.282;2023-02-05T17:32:57;18.38;;;3.92;;
27666;SDS011;15074;50.940;5.282;2023-02-05T17:35:23;13.90;;;4.05;;
27666;SDS011;15074;50.940;5.282;2023-02-05T17:37:50;23.25;;;4.78;;
27666;SDS011;15074;50.940;5.282;2023-02-05T17:40:16;11.48;;;3.17;;
27666;SDS011;15074;50.940;5.282;2023-02-05T17:42:43;25.10;;;4.00;;
27666;SDS011;15074;50.940;5.282;2023-02-05T17:47:35;13.27;;;3.80;;
27666;SDS011;15074;50.940;5.282;2023-02-05T17:50:01;22.20;;;4.35;;
27666;SDS011;15074;50.940;5.282;2023-02-05T17:52:27;18.23;;;3.38;;
27666;SDS011;15074;50.940;5.282;2023-02-05T17:54:52;25.25;;;4.25;;
27666;SDS011;15074;50.940;5.282;2023-02-05T17:57:20;32.13;;;6.28;;
27666;SDS011;15074;50.940;5.282;2023-02-05T17:59:47;12.30;;;3.97;;
27666;SDS011;15074;50.940;5.282;2023-02-05T18:02:13;29.27;;;5.28;;
27666;SDS011;15074;50.940;5.282;2023-02-05T18:04:40;15.52;;;4.05;;
27666;SDS011;15074;50.940;5.282;2023-02-05T18:07:29;16.67;;;4.33;;
27666;SDS011;15074;50.940;5.282;2023-02-05T18:09:55;23.50;;;3.97;;
27666;SDS011;15074;50.940;5.282;2023-02-05T18:12:22;21.88;;;4.68;;
27666;SDS011;15074;50.940;5.282;2023-02-05T18:14:47;25.45;;;4.60;;
27666;SDS011;15074;50.940;5.282;2023-02-05T18:17:14;20.67;;;4.85;;
27666;SDS011;15074;50.940;5.282;2023-02-05T18:19:39;28.25;;;5.22;;
27666;SDS011;15074;50.940;5.282;2023-02-05T18:22:05;26.48;;;4.50;;
27666;SDS011;15074;50.940;5.282;2023-02-05T18:24:31;22.17;;;5.68;;
27666;SDS011;15074;50.940;5.282;2023-02-05T18:26:57;30.25;;;5.63;;